createdAt,value
2018-03-14T00:01:47.377Z,4.60
2018-03-14T00:04:15.676Z,4.60
2018-03-14T00:06:43.940Z,4.60
2018-03-14T00:09:11.471Z,4.60
2018-03-14T00:11:38.969Z,4.60
2018-03-14T00:14:06.501Z,4.60
2018-03-14T00:16:33.999Z,4.60
2018-03-14T00:19:01.519Z,4.60
2018-03-14T00:21:29.772Z,4.60
2018-03-14T00:23:57.305Z,4.60
2018-03-14T00:26:24.808Z,4.60
2018-03-14T00:28:52.327Z,4.60
2018-03-14T00:31:20.607Z,4.60
2018-03-14T00:33:48.908Z,4.60
2018-03-14T00:36:17.173Z,4.60
2018-03-14T00:38:44.700Z,4.60
2018-03-14T00:41:12.201Z,4.60
2018-03-14T00:43:39.720Z,4.60
2018-03-14T00:46:07.215Z,4.60
2018-03-14T00:48:34.743Z,4.60
2018-03-14T00:51:03.002Z,4.60
2018-03-14T00:53:30.542Z,4.60
2018-03-14T00:55:58.044Z,4.50
2018-03-14T00:58:25.567Z,4.50
2018-03-14T01:00:53.070Z,4.50
2018-03-14T01:03:21.467Z,4.50
2018-03-14T01:05:48.974Z,4.50
2018-03-14T01:08:16.506Z,4.50
2018-03-14T01:10:44.005Z,4.50
2018-03-14T01:13:11.536Z,4.50
2018-03-14T01:15:39.036Z,4.50
2018-03-14T01:18:07.378Z,4.50
2018-03-14T01:20:34.880Z,4.50
2018-03-14T01:23:02.405Z,4.50
2018-03-14T01:25:30.664Z,4.50
2018-03-14T01:27:58.189Z,4.50
2018-03-14T01:30:25.683Z,4.50
2018-03-14T01:32:53.234Z,4.50
2018-03-14T01:35:20.732Z,4.50
2018-03-14T01:37:48.229Z,4.50
2018-03-14T01:40:15.755Z,4.50
2018-03-14T01:42:43.252Z,4.50
2018-03-14T01:45:10.787Z,4.50
2018-03-14T01:47:38.295Z,4.50
2018-03-14T01:50:05.838Z,4.50
2018-03-14T01:52:33.335Z,4.50
2018-03-14T01:55:00.902Z,4.50
2018-03-14T01:57:28.403Z,4.50
2018-03-14T01:59:55.936Z,4.50
2018-03-14T02:02:23.440Z,4.50
2018-03-14T02:04:50.970Z,4.50
2018-03-14T02:07:18.467Z,4.50
2018-03-14T02:09:46.011Z,4.50
2018-03-14T02:12:13.507Z,4.50
2018-03-14T02:14:41.030Z,4.50
2018-03-14T02:17:08.530Z,4.50
2018-03-14T02:19:36.056Z,4.60
2018-03-14T02:22:04.324Z,4.60
2018-03-14T02:24:31.861Z,4.60
2018-03-14T02:26:59.351Z,4.60
2018-03-14T02:29:26.880Z,4.60
2018-03-14T02:31:54.384Z,4.70
2018-03-14T02:34:21.920Z,4.70
2018-03-14T02:37:01.260Z,4.70
2018-03-14T02:39:29.554Z,4.80
2018-03-14T02:41:57.819Z,4.70
2018-03-14T02:44:25.340Z,4.80
2018-03-14T02:46:52.839Z,4.70
2018-03-14T02:49:20.359Z,4.70
2018-03-14T02:51:48.616Z,4.70
2018-03-14T02:54:16.124Z,4.70
2018-03-14T02:56:43.612Z,4.70
2018-03-14T02:59:11.121Z,4.70
2018-03-14T03:01:38.649Z,4.70
2018-03-14T03:04:06.127Z,4.60
2018-03-14T03:06:33.609Z,4.60
2018-03-14T03:09:01.095Z,4.60
2018-03-14T03:11:28.603Z,4.60
2018-03-14T03:13:56.114Z,4.60
2018-03-14T03:16:23.599Z,4.60
2018-03-14T03:18:51.076Z,4.60
2018-03-14T03:21:18.587Z,4.60
2018-03-14T03:23:46.077Z,4.60
2018-03-14T03:26:13.586Z,4.60
2018-03-14T03:28:41.086Z,4.50
2018-03-14T03:31:08.601Z,4.50
2018-03-14T03:33:36.103Z,4.50
2018-03-14T03:36:03.620Z,4.50
2018-03-14T03:38:31.098Z,4.50
2018-03-14T03:40:59.381Z,4.40
2018-03-14T03:43:26.868Z,4.40
2018-03-14T03:45:55.152Z,4.20
2018-03-14T03:48:23.404Z,4.00
2018-03-14T03:50:50.919Z,4.00
2018-03-14T03:53:18.402Z,3.90
2018-03-14T03:55:45.915Z,3.70
2018-03-14T03:58:13.388Z,3.60
2018-03-14T04:00:40.925Z,3.50
2018-03-14T04:03:08.393Z,3.40
2018-03-14T04:05:35.908Z,3.30
2018-03-14T04:08:03.400Z,3.20
2018-03-14T04:10:31.678Z,3.10
2018-03-14T04:12:59.176Z,3.10
2018-03-14T04:15:26.683Z,3.00
2018-03-14T04:17:54.172Z,2.90
2018-03-14T04:20:21.798Z,2.90
2018-03-14T04:22:49.279Z,2.90
2018-03-14T04:25:16.788Z,2.80
2018-03-14T04:27:44.267Z,2.70
2018-03-14T04:30:11.776Z,2.70
2018-03-14T04:32:39.259Z,2.80
2018-03-14T04:35:06.778Z,2.90
2018-03-14T04:37:34.275Z,3.10
2018-03-14T04:40:01.789Z,3.20
2018-03-14T04:42:29.272Z,3.40
2018-03-14T04:44:56.787Z,3.60
2018-03-14T04:47:25.036Z,3.80
2018-03-14T04:49:52.550Z,3.80
2018-03-14T04:52:20.800Z,4.00
2018-03-14T04:54:48.307Z,4.00
2018-03-14T04:57:16.565Z,4.20
2018-03-14T04:59:44.071Z,4.20
2018-03-14T05:02:12.320Z,4.30
2018-03-14T05:04:39.857Z,4.30
2018-03-14T05:07:08.335Z,4.30
2018-03-14T05:09:35.842Z,4.40
2018-03-14T05:12:04.232Z,4.50
2018-03-14T05:14:31.753Z,4.50
2018-03-14T05:17:00.016Z,4.60
2018-03-14T05:19:27.523Z,4.60
2018-03-14T05:21:55.776Z,4.60
2018-03-14T05:24:23.292Z,4.60
2018-03-14T05:26:50.780Z,4.60
2018-03-14T05:29:18.294Z,4.50
2018-03-14T05:31:45.788Z,4.40
2018-03-14T05:34:14.093Z,4.20
2018-03-14T05:36:41.596Z,4.20
2018-03-14T05:39:09.117Z,4.10
2018-03-14T05:41:37.375Z,3.70
2018-03-14T05:44:04.889Z,3.70
2018-03-14T05:46:33.137Z,3.40
2018-03-14T05:49:00.658Z,3.40
2018-03-14T05:51:28.147Z,3.30
2018-03-14T05:53:55.659Z,3.30
2018-03-14T05:56:23.148Z,3.20
2018-03-14T05:58:50.672Z,3.30
2018-03-14T06:01:18.163Z,3.20
2018-03-14T06:03:45.693Z,3.20
2018-03-14T06:06:13.186Z,3.20
2018-03-14T06:08:40.764Z,3.20
2018-03-14T06:11:08.280Z,3.20
2018-03-14T06:13:35.808Z,3.10
2018-03-14T06:16:03.295Z,3.10
2018-03-14T06:18:30.817Z,3.10
2018-03-14T06:20:58.312Z,3.10
2018-03-14T06:23:25.826Z,3.20
2018-03-14T06:25:53.315Z,3.10
2018-03-14T06:28:20.850Z,3.10
2018-03-14T06:30:48.352Z,3.10
2018-03-14T06:33:15.872Z,3.10
2018-03-14T06:35:43.365Z,3.10
2018-03-14T06:38:10.898Z,3.10
2018-03-14T06:40:38.382Z,3.30
2018-03-14T06:43:05.909Z,3.50
2018-03-14T06:45:34.177Z,4.10
2018-03-14T06:48:01.716Z,4.10
2018-03-14T06:50:29.219Z,4.40
2018-03-14T06:52:56.751Z,4.60
2018-03-14T06:55:24.272Z,4.80
2018-03-14T06:57:51.834Z,5.10
2018-03-14T07:00:30.936Z,5.30
2018-03-14T07:06:11.961Z,6.20
2018-03-14T07:08:39.528Z,6.50
2018-03-14T07:11:07.012Z,6.70
2018-03-14T07:13:34.541Z,6.80
2018-03-14T07:16:02.816Z,7.00
2018-03-14T07:18:30.343Z,7.00
2018-03-14T07:20:57.853Z,8.20
2018-03-14T07:23:25.375Z,10.60
2018-03-14T07:25:52.876Z,12.20
2018-03-14T07:28:20.395Z,13.50
2018-03-14T07:30:47.887Z,14.20
2018-03-14T07:33:15.439Z,15.10
2018-03-14T07:35:42.950Z,15.90
2018-03-14T07:38:10.505Z,16.60
2018-03-14T07:40:38.005Z,16.80
2018-03-14T07:43:05.520Z,16.70
2018-03-14T07:45:33.780Z,18.60
2018-03-14T07:48:01.296Z,18.60
2018-03-14T07:50:28.791Z,19.40
2018-03-14T07:52:56.311Z,19.30
2018-03-14T07:55:23.802Z,19.20
2018-03-14T07:57:51.335Z,19.10
2018-03-14T08:00:18.833Z,19.50
2018-03-14T08:02:47.146Z,19.60
2018-03-14T08:05:14.643Z,19.50
2018-03-14T08:07:42.287Z,20.10
2018-03-14T08:10:10.583Z,19.50
2018-03-14T08:12:38.110Z,19.50
2018-03-14T08:15:05.601Z,19.60
2018-03-14T08:17:33.119Z,19.20
2018-03-14T08:20:00.655Z,20.50
2018-03-14T08:22:28.188Z,21.10
2018-03-14T08:24:55.700Z,21.90
2018-03-14T08:27:23.248Z,22.60
2018-03-14T08:29:50.749Z,22.70
2018-03-14T08:32:18.317Z,22.80
2018-03-14T08:34:45.804Z,23.00
2018-03-14T08:37:13.374Z,23.10
2018-03-14T08:39:42.862Z,23.30
2018-03-14T08:42:11.172Z,23.60
2018-03-14T08:44:49.683Z,23.50
2018-03-14T08:47:17.980Z,23.00
2018-03-14T08:49:46.239Z,21.20
2018-03-14T08:52:13.755Z,21.20
2018-03-14T08:54:41.249Z,19.90
2018-03-14T08:57:08.776Z,20.50
2018-03-14T08:59:37.035Z,21.60
2018-03-14T09:02:04.560Z,21.60
2018-03-14T09:04:32.075Z,21.50
2018-03-14T09:06:59.612Z,20.10
2018-03-14T09:09:27.108Z,18.30
2018-03-14T09:11:54.648Z,18.30
2018-03-14T09:14:22.136Z,19.80
2018-03-14T09:16:49.664Z,21.40
2018-03-14T09:19:17.929Z,23.80
2018-03-14T09:21:45.445Z,23.70
2018-03-14T09:24:12.939Z,24.50
2018-03-14T09:26:40.519Z,24.40
2018-03-14T09:29:08.024Z,24.90
2018-03-14T09:31:35.568Z,23.90
2018-03-14T09:34:03.072Z,21.40
2018-03-14T09:36:30.604Z,20.00
2018-03-14T09:38:58.106Z,19.80
2018-03-14T09:41:25.627Z,19.90
2018-03-14T09:43:53.118Z,19.70
2018-03-14T09:46:20.641Z,18.40
2018-03-14T09:48:48.133Z,17.50
2018-03-14T09:51:15.655Z,16.70
2018-03-14T09:53:43.168Z,17.50
2018-03-14T09:56:10.700Z,17.30
2018-03-14T09:58:38.194Z,17.80
2018-03-14T10:01:06.490Z,20.30
2018-03-14T10:03:33.994Z,20.30
2018-03-14T10:06:01.519Z,21.40
2018-03-14T10:08:29.010Z,21.90
2018-03-14T10:10:56.536Z,21.00
2018-03-14T10:13:24.033Z,21.50
2018-03-14T10:15:51.567Z,21.00
2018-03-14T10:18:19.068Z,21.00
2018-03-14T10:20:46.613Z,20.90
2018-03-14T10:23:14.101Z,21.50
2018-03-14T10:25:41.723Z,22.00
2018-03-14T10:28:09.136Z,21.90
2018-03-14T10:30:36.657Z,21.70
2018-03-14T10:33:04.149Z,20.90
2018-03-14T10:35:31.673Z,21.40
2018-03-14T10:37:59.158Z,22.00
2018-03-14T10:40:27.443Z,21.60
2018-03-14T10:42:55.711Z,21.50
2018-03-14T10:45:23.235Z,21.50
2018-03-14T10:47:50.723Z,21.60
2018-03-14T10:50:18.244Z,21.80
2018-03-14T10:52:45.775Z,21.00
2018-03-14T10:55:13.300Z,20.50
2018-03-14T10:57:41.557Z,20.90
2018-03-14T11:00:09.087Z,20.90
2018-03-14T11:02:52.374Z,20.60
2018-03-14T11:05:19.931Z,20.50
2018-03-14T11:07:47.499Z,18.50
2018-03-14T11:10:14.955Z,17.90
2018-03-14T11:12:42.478Z,18.00
2018-03-14T11:15:10.728Z,16.70
2018-03-14T11:17:38.248Z,16.70
2018-03-14T11:20:06.524Z,14.90
2018-03-14T11:22:36.957Z,14.80
2018-03-14T11:25:07.518Z,13.80
2018-03-14T11:27:35.645Z,13.80
2018-03-14T11:30:03.139Z,13.70
2018-03-14T11:32:30.679Z,13.20
2018-03-14T11:34:58.169Z,12.90
2018-03-14T11:37:25.704Z,12.90
2018-03-14T11:39:53.210Z,12.60
2018-03-14T11:42:20.740Z,12.40
2018-03-14T11:44:48.251Z,12.40
2018-03-14T11:47:15.773Z,12.50
2018-03-14T11:49:45.125Z,12.40
2018-03-14T11:52:12.874Z,12.40
2018-03-14T11:54:40.737Z,12.40
2018-03-14T11:57:12.569Z,12.30
2018-03-14T11:59:42.312Z,12.30
2018-03-14T12:02:24.765Z,12.40
2018-03-14T12:04:52.275Z,12.20
2018-03-14T12:07:19.804Z,12.20
2018-03-14T12:09:48.068Z,12.20
2018-03-14T12:12:15.589Z,12.20
2018-03-14T12:14:43.081Z,12.50
2018-03-14T12:17:10.604Z,12.70
2018-03-14T12:19:38.869Z,12.70
2018-03-14T12:22:06.388Z,12.60
2018-03-14T12:24:33.877Z,12.20
2018-03-14T12:27:01.400Z,11.80
2018-03-14T12:29:28.908Z,11.50
2018-03-14T12:31:56.444Z,11.30
2018-03-14T12:34:23.931Z,11.20
2018-03-14T12:36:52.405Z,11.20
2018-03-14T12:39:20.604Z,11.30
2018-03-14T12:41:54.729Z,11.50
2018-03-14T12:44:22.568Z,11.60
2018-03-14T12:46:50.712Z,11.60
2018-03-14T12:49:18.236Z,11.60
2018-03-14T12:51:45.765Z,11.70
2018-03-14T12:54:13.277Z,11.60
2018-03-14T12:56:40.794Z,11.60
2018-03-14T12:59:08.278Z,11.50
2018-03-14T13:01:35.792Z,11.60
2018-03-14T13:04:03.276Z,11.60
2018-03-14T13:06:30.797Z,11.70
2018-03-14T13:08:58.293Z,11.70
2018-03-14T13:11:25.807Z,11.80
2018-03-14T13:13:53.304Z,11.90
2018-03-14T13:16:20.831Z,11.90
2018-03-14T13:18:48.370Z,12.10
2018-03-14T13:21:15.864Z,12.10
2018-03-14T13:23:44.935Z,12.00
2018-03-14T13:26:12.464Z,12.00
2018-03-14T13:28:40.768Z,11.90
2018-03-14T13:31:09.023Z,11.80
2018-03-14T13:33:36.551Z,11.80
2018-03-14T13:36:04.044Z,11.70
2018-03-14T13:38:31.584Z,11.70
2018-03-14T13:40:59.069Z,11.80
2018-03-14T13:43:26.591Z,11.90
2018-03-14T13:45:54.084Z,12.00
2018-03-14T13:48:22.377Z,12.00
2018-03-14T13:50:50.666Z,12.00
2018-03-14T13:53:18.180Z,12.10
2018-03-14T13:55:45.667Z,12.10
2018-03-14T13:58:14.195Z,12.10
2018-03-14T14:00:41.976Z,12.00
2018-03-14T14:03:10.332Z,12.10
2018-03-14T14:05:37.819Z,12.10
2018-03-14T14:10:46.126Z,12.00
2018-03-14T14:13:17.052Z,12.10
2018-03-14T14:15:48.282Z,12.10
2018-03-14T14:18:15.854Z,12.10
2018-03-14T14:20:43.408Z,12.00
2018-03-14T14:23:12.978Z,11.90
2018-03-14T14:25:49.231Z,11.90
2018-03-14T14:28:17.375Z,11.90
2018-03-14T14:30:44.883Z,12.00
2018-03-14T14:33:12.412Z,11.90
2018-03-14T14:35:39.949Z,11.90
2018-03-14T14:38:07.496Z,11.70
2018-03-14T14:40:34.983Z,11.60
2018-03-14T14:43:03.264Z,11.90
2018-03-14T14:45:31.522Z,12.00
2018-03-14T14:47:59.066Z,12.00
2018-03-14T14:50:26.565Z,12.10
2018-03-14T14:52:54.080Z,12.10
2018-03-14T14:55:22.340Z,12.00
2018-03-14T14:57:49.870Z,12.00
2018-03-14T15:00:17.396Z,12.00
2018-03-14T15:02:44.923Z,11.90
2018-03-14T15:05:12.600Z,11.80
2018-03-14T15:07:40.120Z,11.70
2018-03-14T15:10:07.633Z,11.70
2018-03-14T15:12:35.171Z,11.70
2018-03-14T15:15:03.423Z,11.90
2018-03-14T15:17:30.921Z,11.90
2018-03-14T15:19:58.458Z,12.10
2018-03-14T15:22:25.941Z,12.30
2018-03-14T15:24:53.471Z,12.30
2018-03-14T15:27:20.970Z,12.30
2018-03-14T15:29:48.536Z,12.20
2018-03-14T15:32:16.052Z,12.10
2018-03-14T15:34:43.540Z,12.00
2018-03-14T15:37:11.021Z,11.80
2018-03-14T15:39:38.543Z,11.70
2018-03-14T15:42:06.067Z,11.60
2018-03-14T15:44:33.563Z,11.70
2018-03-14T15:47:01.056Z,11.70
2018-03-14T15:49:28.571Z,11.60
2018-03-14T15:51:56.075Z,11.50
2018-03-14T15:54:23.614Z,11.60
2018-03-14T15:56:51.120Z,11.60
2018-03-14T15:59:18.633Z,11.70
2018-03-14T16:01:46.901Z,11.80
2018-03-14T16:04:14.416Z,11.80
2018-03-14T16:06:41.900Z,11.70
2018-03-14T16:09:09.418Z,11.80
2018-03-14T16:11:36.897Z,11.70
2018-03-14T16:14:04.412Z,11.60
2018-03-14T16:16:31.909Z,11.60
2018-03-14T16:18:59.431Z,11.50
2018-03-14T16:21:26.915Z,11.30
2018-03-14T16:23:54.437Z,11.20
2018-03-14T16:26:21.956Z,11.20
2018-03-14T16:28:49.472Z,11.10
2018-03-14T16:31:16.954Z,11.10
2018-03-14T16:33:44.468Z,11.10
2018-03-14T16:36:12.723Z,11.20
2018-03-14T16:38:40.256Z,11.20
2018-03-14T16:41:07.744Z,11.20
2018-03-14T16:43:35.275Z,11.20
2018-03-14T16:46:02.758Z,11.20
2018-03-14T16:48:30.278Z,11.20
2018-03-14T16:50:57.776Z,11.20
2018-03-14T16:53:25.296Z,11.10
2018-03-14T16:55:52.780Z,11.00
2018-03-14T16:58:20.302Z,10.80
2018-03-14T17:00:47.804Z,10.70
2018-03-14T17:03:15.336Z,10.50
2018-03-14T17:05:43.597Z,10.30
2018-03-14T17:08:11.081Z,10.30
2018-03-14T17:10:39.378Z,10.30
2018-03-14T17:13:07.688Z,10.20
2018-03-14T17:15:35.259Z,10.20
2018-03-14T17:18:02.696Z,10.10
2018-03-14T17:20:30.217Z,10.00
2018-03-14T17:22:57.713Z,10.00
2018-03-14T17:25:25.227Z,9.90
2018-03-14T17:27:53.509Z,9.70
2018-03-14T17:30:21.773Z,9.70
2018-03-14T17:32:49.295Z,9.70
2018-03-14T17:35:16.780Z,9.60
2018-03-14T17:37:44.293Z,9.60
2018-03-14T17:40:11.792Z,9.50
2018-03-14T17:42:39.303Z,9.50
2018-03-14T17:45:08.583Z,9.30
2018-03-14T17:47:36.204Z,9.20
2018-03-14T17:50:03.695Z,9.10
2018-03-14T17:52:31.203Z,9.00
2018-03-14T17:54:58.773Z,9.00
2018-03-14T17:57:26.309Z,8.90
2018-03-14T17:59:54.152Z,8.90
2018-03-14T18:02:21.661Z,8.90
2018-03-14T18:04:49.144Z,8.80
2018-03-14T18:07:17.439Z,8.70
2018-03-14T18:09:45.055Z,8.70
2018-03-14T18:12:12.636Z,8.70
2018-03-14T18:14:40.196Z,8.70
2018-03-14T18:17:07.716Z,8.70
2018-03-14T18:19:35.221Z,8.60
2018-03-14T18:22:03.496Z,8.40
2018-03-14T18:24:31.742Z,8.40
2018-03-14T18:27:00.252Z,8.40
2018-03-14T18:29:27.980Z,8.30
2018-03-14T18:31:56.072Z,8.40
2018-03-14T18:34:23.564Z,8.30
2018-03-14T18:36:51.191Z,8.30
2018-03-14T18:39:19.442Z,8.30
2018-03-14T18:41:46.958Z,8.30
2018-03-14T18:44:14.471Z,8.30
2018-03-14T18:46:42.905Z,8.20
2018-03-14T18:49:10.393Z,8.20
2018-03-14T18:51:38.661Z,8.20
2018-03-14T18:54:06.172Z,8.20
2018-03-14T18:56:33.681Z,8.10
2018-03-14T18:59:01.948Z,8.20
2018-03-14T19:01:29.459Z,8.20
2018-03-14T19:03:56.994Z,8.10
2018-03-14T19:06:24.499Z,8.00
2018-03-14T19:08:51.979Z,8.00
2018-03-14T19:11:19.496Z,8.00
2018-03-14T19:13:46.986Z,7.90
2018-03-14T19:16:14.588Z,8.00
2018-03-14T19:18:42.856Z,7.90
2018-03-14T19:21:10.386Z,7.90
2018-03-14T19:23:37.884Z,7.80
2018-03-14T19:26:05.428Z,7.80
2018-03-14T19:28:32.920Z,7.80
2018-03-14T19:31:00.413Z,7.80
2018-03-14T19:33:28.132Z,7.70
2018-03-14T19:35:55.666Z,7.60
2018-03-14T19:38:23.141Z,7.60
2018-03-14T19:40:50.663Z,7.40
2018-03-14T19:43:18.140Z,7.10
2018-03-14T19:45:45.632Z,6.80
2018-03-14T19:48:13.168Z,6.60
2018-03-14T19:50:41.449Z,6.20
2018-03-14T19:53:09.699Z,6.00
2018-03-14T19:55:37.225Z,6.00
2018-03-14T19:58:04.705Z,5.80
2018-03-14T20:00:32.183Z,5.70
2018-03-14T20:02:59.841Z,5.70
2018-03-14T20:05:27.399Z,5.60
2018-03-14T20:07:54.948Z,5.50
2018-03-14T20:10:22.475Z,5.60
2018-03-14T20:12:49.977Z,5.70
2018-03-14T20:15:17.708Z,5.70
2018-03-14T20:17:45.192Z,5.60
2018-03-14T20:20:12.726Z,5.50
2018-03-14T20:22:41.057Z,5.20
2018-03-14T20:25:08.564Z,5.20
2018-03-14T20:27:36.069Z,5.20
2018-03-14T20:30:04.384Z,5.20
2018-03-14T20:32:31.883Z,5.20
2018-03-14T20:34:59.367Z,5.20
2018-03-14T20:37:26.898Z,5.10
2018-03-14T20:39:54.381Z,5.00
2018-03-14T20:42:21.904Z,4.90
2018-03-14T20:44:49.386Z,4.90
2018-03-14T20:47:17.676Z,5.10
2018-03-14T20:49:45.955Z,5.30
2018-03-14T20:52:13.648Z,5.30
2018-03-14T20:54:41.158Z,5.50
2018-03-14T20:57:08.776Z,6.00
2018-03-14T20:59:36.273Z,6.30
2018-03-14T21:02:06.535Z,6.40
2018-03-14T21:04:34.513Z,6.50
2018-03-14T21:07:02.036Z,6.50
2018-03-14T21:09:29.574Z,6.50
2018-03-14T21:11:59.094Z,6.50
2018-03-14T21:14:27.479Z,6.40
2018-03-14T21:16:54.976Z,6.40
2018-03-14T21:19:22.487Z,6.30
2018-03-14T21:21:49.976Z,6.30
2018-03-14T21:24:17.469Z,6.30
2018-03-14T21:26:44.986Z,6.20
2018-03-14T21:29:13.274Z,6.10
2018-03-14T21:31:42.098Z,6.10
2018-03-14T21:34:09.604Z,6.10
2018-03-14T21:36:37.125Z,6.10
2018-03-14T21:39:04.608Z,6.00
2018-03-14T21:41:32.160Z,6.00
2018-03-14T21:44:00.411Z,5.80
2018-03-14T21:46:27.929Z,5.80
2018-03-14T21:48:55.420Z,5.70
2018-03-14T21:51:22.991Z,5.70
2018-03-14T21:53:51.226Z,5.80
2018-03-14T21:56:18.763Z,5.80
2018-03-14T21:58:46.251Z,5.80
2018-03-14T22:01:13.775Z,5.80
2018-03-14T22:03:41.275Z,5.70
2018-03-14T22:06:08.860Z,5.70
2018-03-14T22:08:36.334Z,5.70
2018-03-14T22:11:03.852Z,5.70
2018-03-14T22:13:35.779Z,5.60
2018-03-14T22:16:03.307Z,5.60
2018-03-14T22:18:30.796Z,5.60
2018-03-14T22:20:58.320Z,5.50
2018-03-14T22:23:25.812Z,5.40
2018-03-14T22:25:54.091Z,5.50
2018-03-14T22:28:22.340Z,5.40
2018-03-14T22:30:49.853Z,5.40
2018-03-14T22:33:17.340Z,5.40
2018-03-14T22:35:44.861Z,5.40
2018-03-14T22:38:12.411Z,5.40
2018-03-14T22:40:40.652Z,5.40
2018-03-14T22:43:08.908Z,5.40
2018-03-14T22:45:36.428Z,5.40
2018-03-14T22:48:04.683Z,5.40
2018-03-14T22:50:32.205Z,5.40
2018-03-14T22:52:59.700Z,5.40
2018-03-14T22:55:27.217Z,5.30
2018-03-14T22:57:55.472Z,5.30
2018-03-14T23:00:23.007Z,5.30
2018-03-14T23:02:50.493Z,5.30
2018-03-14T23:05:18.008Z,5.20
2018-03-14T23:07:45.503Z,5.20
2018-03-14T23:10:13.755Z,5.20
2018-03-14T23:12:41.284Z,5.10
2018-03-14T23:15:08.773Z,5.10
2018-03-14T23:17:36.300Z,5.10
2018-03-14T23:20:04.547Z,5.00
2018-03-14T23:22:32.072Z,5.00
2018-03-14T23:24:59.596Z,5.00
2018-03-14T23:27:27.081Z,5.00
2018-03-14T23:29:54.600Z,5.00
2018-03-14T23:32:22.087Z,5.00
2018-03-14T23:34:49.600Z,5.00
2018-03-14T23:37:17.163Z,5.00
2018-03-14T23:39:44.635Z,5.00
2018-03-14T23:42:12.158Z,4.90
2018-03-14T23:44:39.649Z,4.90
2018-03-14T23:47:07.169Z,4.90
2018-03-14T23:49:34.693Z,4.90
2018-03-14T23:52:02.183Z,4.80
2018-03-14T23:54:29.708Z,4.80
2018-03-14T23:56:57.204Z,4.80
2018-03-14T23:59:24.712Z,4.80
